Time;durP1;ratioP1;P1;durP2;ratioP2;P2;SDS_P1;SDS_P2;PMS_P1;PMS_P2;Temp;Humidity;BMP_temperature;BMP_pressure;BME280_temperature;BME280_humidity;BME280_pressure;Samples;Min_cycle;Max_cycle;Signal;HPM_P1;HPM_P2
2023/07/17 00:01:33;;;;;;;6.80;4.50;;;;;;;26.00;92.35;100889.88;106145;1256;66754;-91
2023/07/17 00:04:22;;;;;;;4.40;4.00;;;;;;;26.01;92.48;100890.95;106255;1256;61336;-92
2023/07/17 00:07:10;;;;;;;5.80;3.80;;;;;;;26.02;92.43;100894.72;106026;1256;64140;-89
2023/07/17 00:09:58;;;;;;;6.50;4.50;;;;;;;26.03;91.84;100895.54;105994;1256;61205;-93
2023/07/17 00:12:50;;;;;;;6.20;3.90;;;;;;;26.05;91.38;100895.73;106028;1260;59270;-91
2023/07/17 00:15:39;;;;;;;7.80;4.20;;;;;;;26.04;91.09;100893.22;106026;1264;66985;-93
2023/07/17 00:18:30;;;;;;;8.90;4.20;;;;;;;26.02;91.06;100895.44;106000;1256;69258;-88
2023/07/17 00:21:19;;;;;;;9.70;4.10;;;;;;;26.00;91.44;100895.73;105960;1258;64980;-92
2023/07/17 00:24:07;;;;;;;6.20;3.70;;;;;;;26.00;92.04;100894.77;106118;1256;61244;-90
2023/07/17 00:26:56;;;;;;;8.50;3.70;;;;;;;26.04;91.83;100890.59;106018;1256;61261;-90
2023/07/17 00:29:44;;;;;;;6.60;4.20;;;;;;;26.03;92.36;100888.96;106067;1261;66039;-91
2023/07/17 00:32:33;;;;;;;4.80;3.60;;;;;;;26.08;92.07;100893.88;106155;1256;70112;-88
2023/07/17 00:35:21;;;;;;;9.10;4.30;;;;;;;26.12;91.38;100888.02;106228;1255;64937;-89
2023/07/17 00:38:09;;;;;;;7.00;4.30;;;;;;;26.10;91.01;100884.06;106067;1261;61256;-90
2023/07/17 00:40:58;;;;;;;6.10;4.40;;;;;;;26.07;90.65;100887.77;105903;1257;61268;-90
2023/07/17 00:43:46;;;;;;;6.90;4.20;;;;;;;26.02;90.27;100884.33;106036;1261;66358;-90
2023/07/17 00:46:34;;;;;;;7.50;4.50;;;;;;;25.99;89.74;100881.64;105936;1262;61278;-90
2023/07/17 00:49:26;;;;;;;6.10;4.10;;;;;;;25.93;90.05;100879.27;105917;1261;64438;-90
2023/07/17 00:52:13;;;;;;;6.70;3.90;;;;;;;25.90;89.93;100878.44;106217;1261;61261;-90
2023/07/17 00:55:01;;;;;;;7.00;4.40;;;;;;;25.89;89.93;100877.05;105995;1262;61203;-89
2023/07/17 00:57:50;;;;;;;7.90;4.20;;;;;;;25.85;90.54;100873.04;106089;1256;75632;-90
2023/07/17 01:00:40;;;;;;;8.00;5.50;;;;;;;25.90;90.51;100870.84;106179;1260;61351;-90
2023/07/17 01:03:30;;;;;;;6.90;4.80;;;;;;;25.89;90.22;100866.58;105919;1258;65285;-91
2023/07/17 01:06:18;;;;;;;6.90;4.20;;;;;;;25.79;90.80;100863.67;105906;1258;61307;-91
2023/07/17 01:09:07;;;;;;;5.00;4.50;;;;;;;25.76;90.36;100866.65;106092;1256;61225;-92
2023/07/17 01:11:56;;;;;;;10.10;4.60;;;;;;;25.69;90.49;100864.77;106289;1263;66911;-92
2023/07/17 01:14:44;;;;;;;6.50;4.10;;;;;;;25.63;91.40;100864.49;106014;1257;69752;-91
2023/07/17 01:17:33;;;;;;;7.00;4.00;;;;;;;25.62;91.91;100869.02;106439;1260;63841;-90
2023/07/17 01:20:21;;;;;;;6.40;4.00;;;;;;;25.58;92.97;100869.51;106198;1256;61269;-93
2023/07/17 01:23:09;;;;;;;7.80;4.30;;;;;;;25.64;93.56;100869.31;105989;1264;61159;-89
2023/07/17 01:25:58;;;;;;;5.60;3.80;;;;;;;25.75;93.45;100875.50;105999;1260;74608;-92
2023/07/17 01:28:46;;;;;;;7.20;4.50;;;;;;;25.79;93.50;100877.50;105977;1261;69707;-91
2023/07/17 01:31:38;;;;;;;7.50;3.80;;;;;;;25.81;93.80;100877.92;106093;1261;64966;-91
2023/07/17 01:34:28;;;;;;;6.40;3.90;;;;;;;25.88;93.58;100879.19;105835;1260;61272;-90
2023/07/17 01:37:17;;;;;;;8.10;4.10;;;;;;;25.91;93.46;100882.38;106090;1256;61276;-91
2023/07/17 01:40:07;;;;;;;6.70;4.20;;;;;;;25.97;93.52;100884.33;105971;1260;66900;-91
2023/07/17 01:42:56;;;;;;;7.70;4.70;;;;;;;26.05;93.25;100886.28;105978;1261;61347;-91
2023/07/17 01:45:45;;;;;;;7.30;4.40;;;;;;;26.02;93.96;100886.23;106146;1262;64083;-90
2023/07/17 01:48:34;;;;;;;8.30;4.40;;;;;;;26.09;93.79;100888.52;105907;1267;61327;-89
2023/07/17 01:51:23;;;;;;;8.50;5.10;;;;;;;26.11;93.59;100886.08;105990;1256;61282;-89
2023/07/17 01:54:10;;;;;;;9.40;5.10;;;;;;;26.14;93.12;100882.52;106229;1256;64858;-92
2023/07/17 01:56:59;;;;;;;6.70;4.60;;;;;;;26.15;93.03;100881.50;106026;1260;61451;-89
2023/07/17 01:59:47;;;;;;;11.30;5.60;;;;;;;26.22;92.73;100878.73;106081;1260;64036;-90
2023/07/17 02:02:35;;;;;;;7.50;4.80;;;;;;;26.26;92.91;100880.78;106019;1256;61227;-92
2023/07/17 02:05:24;;;;;;;6.00;4.40;;;;;;;26.33;92.74;100881.45;106003;1258;61106;-90
2023/07/17 02:08:12;;;;;;;6.40;4.40;;;;;;;26.38;92.74;100881.14;106044;1259;67100;-91
2023/07/17 02:11:00;;;;;;;8.20;4.20;;;;;;;26.47;92.62;100884.86;106319;1257;61268;-90
2023/07/17 02:13:49;;;;;;;5.20;3.90;;;;;;;26.56;92.67;100885.90;105994;1262;64076;-91
2023/07/17 02:16:37;;;;;;;4.50;3.80;;;;;;;26.65;92.28;100886.84;105997;1258;61306;-90
2023/07/17 02:19:26;;;;;;;6.20;4.20;;;;;;;26.69;92.45;100882.17;106115;1256;61402;-91
2023/07/17 02:22:15;;;;;;;5.00;3.60;;;;;;;26.78;91.83;100880.69;106140;1260;66832;-92
2023/07/17 02:25:05;;;;;;;6.30;4.20;;;;;;;26.87;91.23;100881.38;106120;1265;61237;-91
2023/07/17 02:27:54;;;;;;;5.20;3.70;;;;;;;26.94;90.79;100877.55;105948;1263;63918;-89
2023/07/17 02:30:42;;;;;;;6.30;4.10;;;;;;;26.95;91.13;100880.27;105959;1258;61307;-92
2023/07/17 02:33:30;;;;;;;7.20;4.30;;;;;;;26.98;91.48;100881.29;106041;1259;61184;-89
2023/07/17 02:36:19;;;;;;;5.00;4.50;;;;;;;26.97;92.18;100879.27;106554;1257;65597;-92
2023/07/17 02:39:08;;;;;;;5.60;4.00;;;;;;;27.03;92.65;100884.31;106246;1255;61183;-91
2023/07/17 02:41:56;;;;;;;5.00;4.40;;;;;;;27.15;92.72;100882.70;105971;1274;72460;-90
2023/07/17 02:44:46;;;;;;;8.30;4.00;;;;;;;27.21;93.33;100883.51;106125;1260;61372;-90
2023/07/17 02:47:35;;;;;;;9.20;4.60;;;;;;;27.25;94.38;100879.71;106094;1258;61256;-91
2023/07/17 02:50:23;;;;;;;12.80;5.90;;;;;;;27.30;94.99;100878.01;106089;1263;67109;-91
2023/07/17 02:53:12;;;;;;;8.00;5.10;;;;;;;27.47;94.83;100877.40;106013;1262;61320;-91
2023/07/17 02:56:00;;;;;;;8.00;4.70;;;;;;;27.67;93.90;100881.77;106818;1256;63876;-91
2023/07/17 02:58:53;;;;;;;7.30;4.90;;;;;;;27.78;92.48;100877.70;106037;1256;61371;-91
2023/07/17 03:01:41;;;;;;;8.60;4.60;;;;;;;27.81;91.44;100879.42;105978;1262;61144;-91
2023/07/17 03:04:29;;;;;;;13.60;5.50;;;;;;;27.76;92.29;100886.10;106048;1263;66863;-91
2023/07/17 03:07:18;;;;;;;7.60;5.00;;;;;;;27.81;92.09;100887.69;106034;1256;61164;-88
2023/07/17 03:10:08;;;;;;;5.60;5.00;;;;;;;27.88;92.24;100885.20;106110;1257;64128;-89
2023/07/17 03:12:57;;;;;;;5.10;4.30;;;;;;;28.09;92.00;100886.33;105983;1262;61334;-91
2023/07/17 03:15:47;;;;;;;8.40;5.00;;;;;;;28.22;92.49;100887.73;105967;1262;61340;-91
2023/07/17 03:18:36;;;;;;;6.50;5.40;;;;;;;28.44;92.30;100885.35;106097;1264;66037;-94
2023/07/17 03:21:24;;;;;;;8.00;5.00;;;;;;;28.62;91.92;100884.34;106422;1258;61290;-91
2023/07/17 03:24:13;;;;;;;7.60;4.80;;;;;;;28.77;91.69;100883.39;105988;1258;65383;-89
2023/07/17 03:27:01;;;;;;;8.60;5.30;;;;;;;29.02;90.13;100890.57;105959;1260;61347;-91
2023/07/17 03:29:50;;;;;;;8.70;5.00;;;;;;;29.27;88.14;100886.42;106156;1261;61352;-90
2023/07/17 03:32:39;;;;;;;8.60;4.80;;;;;;;29.48;86.75;100884.64;106054;1264;64514;-91
2023/07/17 03:35:28;;;;;;;7.10;4.90;;;;;;;29.61;85.38;100885.16;106074;1269;61384;-90
2023/07/17 03:38:18;;;;;;;9.90;4.60;;;;;;;29.72;83.55;100888.02;106032;1260;65248;-94
2023/07/17 03:41:06;;;;;;;7.50;4.70;;;;;;;29.84;80.68;100886.02;106038;1259;61298;-92
2023/07/17 03:43:58;;;;;;;7.90;5.20;;;;;;;29.97;78.72;100884.48;106255;1258;61830;-89
2023/07/17 03:46:47;;;;;;;7.50;4.40;;;;;;;30.20;76.42;100882.48;105936;1257;65907;-89
2023/07/17 03:49:35;;;;;;;6.10;4.30;;;;;;;30.36;73.62;100887.33;105995;1261;61341;-91
2023/07/17 03:52:24;;;;;;;5.80;4.90;;;;;;;30.41;74.22;100890.94;105859;1260;63996;-90
2023/07/17 03:55:13;;;;;;;5.80;4.10;;;;;;;30.49;73.82;100895.75;106141;1259;62441;-91
2023/07/17 03:58:03;;;;;;;7.70;4.40;;;;;;;30.49;73.16;100896.80;106217;1260;61186;-92
2023/07/17 04:00:52;;;;;;;5.80;4.50;;;;;;;30.62;69.88;100903.30;105934;1257;68031;-91
2023/07/17 04:03:41;;;;;;;8.00;4.60;;;;;;;30.68;67.57;100904.98;106177;1256;61234;-91
2023/07/17 04:06:31;;;;;;;7.80;5.40;;;;;;;30.74;65.67;100901.73;106292;1257;64819;-91
2023/07/17 04:09:19;;;;;;;8.50;5.20;;;;;;;30.86;64.39;100901.48;106120;1256;60391;-92
2023/07/17 04:12:09;;;;;;;8.20;4.70;;;;;;;30.91;62.50;100898.34;106106;1261;60357;-92
2023/07/17 04:14:59;;;;;;;6.60;4.80;;;;;;;30.96;61.83;100892.67;106241;1257;67132;-93
2023/07/17 04:17:47;;;;;;;8.40;5.20;;;;;;;31.15;62.34;100886.39;106760;1261;61216;-93
2023/07/17 04:20:39;;;;;;;7.00;5.20;;;;;;;31.33;62.39;100883.48;105994;1257;197930;-91
2023/07/17 04:23:27;;;;;;;7.70;4.60;;;;;;;31.45;62.21;100882.94;106145;1257;61254;-93
2023/07/17 04:26:18;;;;;;;6.20;4.50;;;;;;;31.61;60.31;100881.39;106307;1263;61122;-94
2023/07/17 04:29:08;;;;;;;5.30;4.20;;;;;;;31.74;57.64;100883.01;105977;1260;66067;-92
2023/07/17 04:31:56;;;;;;;5.70;4.00;;;;;;;31.93;55.09;100888.04;106134;1262;61268;-93
2023/07/17 04:34:44;;;;;;;7.40;4.20;;;;;;;32.10;53.38;100888.47;105980;1260;64887;-90
2023/07/17 04:37:33;;;;;;;6.60;4.20;;;;;;;32.15;51.86;100896.19;106170;1257;61299;-93
2023/07/17 04:40:22;;;;;;;5.60;3.90;;;;;;;32.25;52.01;100902.56;106008;1258;61277;-91
2023/07/17 04:43:12;;;;;;;7.10;3.70;;;;;;;32.41;50.42;100901.84;106498;1257;66191;-93
2023/07/17 04:46:00;;;;;;;6.00;3.60;;;;;;;32.51;50.51;100901.02;105934;1257;61385;-92
2023/07/17 04:48:54;;;;;;;5.20;3.80;;;;;;;32.67;48.83;100902.25;106202;1256;65615;-93
2023/07/17 04:51:43;;;;;;;6.80;3.90;;;;;;;32.70;46.76;100905.13;106214;1257;61286;-94
2023/07/17 04:54:32;;;;;;;6.10;3.60;;;;;;;32.82;46.90;100904.27;106019;1257;61367;-89
2023/07/17 04:57:22;;;;;;;5.10;3.80;;;;;;;32.98;48.00;100896.80;106398;1257;68895;-92
2023/07/17 05:00:12;;;;;;;6.60;4.30;;;;;;;33.11;47.58;100899.17;105883;1261;61355;-92
2023/07/17 05:03:01;;;;;;;5.70;3.80;;;;;;;33.18;46.10;100902.48;106292;1257;64794;-94
2023/07/17 05:05:50;;;;;;;7.20;3.70;;;;;;;33.17;45.08;100908.65;106408;1257;61329;-94
2023/07/17 05:08:39;;;;;;;6.80;3.70;;;;;;;33.18;44.97;100907.41;105998;1263;61225;-90
2023/07/17 05:11:29;;;;;;;6.60;3.90;;;;;;;33.32;45.79;100909.65;106154;1257;67076;-89
2023/07/17 05:14:21;;;;;;;5.90;3.60;;;;;;;33.41;44.71;100913.33;106341;1257;61275;-92
2023/07/17 05:17:11;;;;;;;6.30;3.70;;;;;;;33.49;45.04;100917.27;106083;1257;64778;-89
2023/07/17 05:20:00;;;;;;;5.40;3.70;;;;;;;33.62;45.10;100915.33;106086;1257;61267;-92
